Time;durP1;ratioP1;P1;durP2;ratioP2;P2;SDS_P1;SDS_P2;PMS_P1;PMS_P2;Temp;Humidity;BMP_temperature;BMP_pressure;BME280_temperature;BME280_humidity;BME280_pressure;Samples;Min_cycle;Max_cycle;Signal;HPM_P1;HPM_P2
2022/02/11 00:08:53;;;;;;;15.95;11.32;;;;;;;11.48;49.51;99424.97;5094008;28;20067;-48
2022/02/11 00:11:21;;;;;;;20.10;10.68;;;;;;;11.45;50.02;99433.22;5093628;28;20074;-49
2022/02/11 00:13:47;;;;;;;20.70;10.82;;;;;;;11.42;49.80;99436.25;5092181;28;20058;-48
2022/02/11 00:16:13;;;;;;;22.80;11.73;;;;;;;11.39;50.33;99433.00;5093490;28;20154;-48
2022/02/11 00:18:39;;;;;;;23.88;11.10;;;;;;;11.51;50.04;99427.22;5093512;28;20442;-49
2022/02/11 00:21:05;;;;;;;18.52;10.10;;;;;;;11.51;49.97;99427.22;5092078;28;20142;-47
2022/02/11 00:23:32;;;;;;;21.20;11.43;;;;;;;11.50;49.96;99420.34;5093378;28;20061;-49
2022/02/11 00:26:00;;;;;;;22.00;10.50;;;;;;;11.48;49.86;99415.28;5093282;28;20027;-48
2022/02/11 00:33:42;;;;;;;27.30;12.32;;;;;;;11.78;49.91;99410.69;5092937;28;20032;-48
2022/02/11 00:36:10;;;;;;;24.35;11.95;;;;;;;11.82;50.06;99408.50;5093155;28;20024;-48
2022/02/11 00:38:59;;;;;;;18.73;10.60;;;;;;;11.75;49.36;99400.56;5093085;28;20035;-47
2022/02/11 01:03:00;;;;;;;23.33;11.35;;;;;;;11.25;52.04;99383.09;5092697;28;20119;-48
2022/02/11 01:05:26;;;;;;;26.63;11.70;;;;;;;11.36;51.94;99382.59;5092634;28;20107;-49
2022/02/11 01:07:51;;;;;;;20.40;11.52;;;;;;;11.48;51.80;99391.63;5092571;28;20099;-48
2022/02/11 01:10:18;;;;;;;27.17;11.45;;;;;;;11.68;51.53;99381.25;5092731;28;20020;-49
2022/02/11 01:12:44;;;;;;;20.40;10.75;;;;;;;11.79;50.80;99377.28;5091039;28;20565;-48
2022/02/11 01:15:11;;;;;;;38.22;20.48;;;;;;;11.87;50.94;99384.22;5092415;28;20020;-50
2022/02/11 01:17:45;;;;;;;20.45;13.18;;;;;;;11.97;50.99;99380.31;5092395;28;20077;-48
2022/02/11 01:21:02;;;;;;;26.10;17.50;;;;;;;11.98;50.48;99386.38;5092372;28;20027;-48
2022/02/11 01:26:32;;;;;;;22.15;13.10;;;;;;;11.78;51.02;99400.16;5049661;28;20025;-48
2022/02/11 01:46:30;;;;;;;22.48;12.18;;;;;;;11.23;57.64;99391.19;5049562;28;20062;-48
2022/02/11 01:51:56;;;;;;;16.88;11.25;;;;;;;10.93;57.68;99388.66;5049442;28;20036;-49
2022/02/11 01:57:50;;;;;;;21.70;12.38;;;;;;;11.02;57.45;99401.66;5049472;28;20047;-47
2022/02/11 02:27:19;;;;;;;25.25;11.93;;;;;;;11.16;56.27;99395.56;5053153;28;20025;-48
2022/02/11 02:30:39;;;;;;;26.02;12.50;;;;;;;11.18;56.07;99394.34;5036439;28;20041;-47
2022/02/11 02:57:22;;;;;;;17.50;10.32;;;;;;;12.58;54.88;99476.25;5095196;28;20459;-48
2022/02/11 03:49:37;;;;;;;23.08;12.98;;;;;;;9.83;69.88;99519.63;5051696;28;20048;-47
2022/02/11 05:00:11;;;;;;;18.73;9.95;;;;;;;11.37;74.82;99605.00;5050312;28;20114;-50
2022/02/11 05:02:38;;;;;;;23.67;15.88;;;;;;;11.16;74.42;99598.66;5050222;28;20071;-49
2022/02/11 05:05:08;;;;;;;28.60;11.07;;;;;;;11.16;75.74;99603.09;5050120;28;20036;-48
2022/02/11 05:07:35;;;;;;;23.17;10.95;;;;;;;11.28;76.15;99601.63;5090899;28;20032;-49
2022/02/11 05:10:00;;;;;;;17.88;9.70;;;;;;;11.44;76.16;99603.25;5092530;28;20024;-49
2022/02/11 05:12:26;;;;;;;22.33;11.82;;;;;;;11.53;76.06;99614.47;5091097;28;20418;-48
2022/02/11 05:14:52;;;;;;;21.55;11.32;;;;;;;11.56;75.94;99611.50;5092451;28;20034;-47
2022/02/11 05:17:17;;;;;;;18.48;10.75;;;;;;;11.60;76.29;99615.41;5091066;28;20028;-48
2022/02/11 05:19:43;;;;;;;12.38;9.27;;;;;;;11.66;76.43;99611.22;5091089;28;20486;-48
2022/02/11 05:22:09;;;;;;;19.42;10.20;;;;;;;11.60;76.50;99616.19;5090960;28;20081;-48
2022/02/11 05:24:34;;;;;;;20.38;11.48;;;;;;;11.53;76.98;99615.31;5092342;28;20016;-49
2022/02/11 05:27:00;;;;;;;17.33;11.35;;;;;;;11.47;77.47;99609.97;5092530;28;20116;-48
2022/02/11 05:29:26;;;;;;;15.70;10.45;;;;;;;11.39;77.79;99610.91;5090801;28;20054;-49
2022/02/11 05:31:52;;;;;;;17.50;11.20;;;;;;;11.32;77.78;99610.78;5090821;28;20103;-49
2022/02/11 05:34:18;;;;;;;24.45;11.38;;;;;;;11.35;77.87;99613.06;5091979;28;20062;-49
2022/02/11 05:36:43;;;;;;;15.93;9.32;;;;;;;11.37;77.54;99621.59;5092120;28;20069;-47
2022/02/11 05:39:10;;;;;;;16.63;8.70;;;;;;;11.13;75.61;99624.50;5090790;28;20436;-48
2022/02/11 05:41:35;;;;;;;15.40;8.75;;;;;;;10.70;75.44;99621.63;5092077;28;20028;-49
2022/02/11 05:44:01;;;;;;;17.70;8.77;;;;;;;10.49;76.87;99630.97;5092038;28;20035;-48
2022/02/11 05:46:29;;;;;;;14.55;7.55;;;;;;;10.36;76.67;99649.09;5091993;28;20478;-47
2022/02/11 05:48:57;;;;;;;13.35;8.43;;;;;;;10.18;77.22;99651.97;5091998;28;20020;-48
2022/02/11 05:51:23;;;;;;;14.63;6.57;;;;;;;10.14;77.89;99659.41;5091938;28;20070;-48
2022/02/11 05:53:49;;;;;;;17.83;6.25;;;;;;;10.08;78.15;99656.63;5091871;28;20020;-48
2022/02/11 05:56:15;;;;;;;32.05;9.07;;;;;;;10.05;78.36;99665.69;5090529;28;20494;-49
2022/02/11 05:58:41;;;;;;;31.75;8.90;;;;;;;10.01;77.87;99669.63;5089888;28;20406;-46
2022/02/11 06:01:06;;;;;;;35.65;10.52;;;;;;;10.01;78.41;99682.75;5091785;28;20052;-47
2022/02/11 06:03:33;;;;;;;44.72;9.43;;;;;;;10.01;77.99;99688.00;5091791;28;20077;-47
2022/02/11 06:05:59;;;;;;;39.53;7.75;;;;;;;9.98;77.30;99696.22;5090800;28;20020;-48
2022/02/11 06:08:25;;;;;;;34.28;9.80;;;;;;;9.97;77.33;99692.75;5091691;28;20027;-47
2022/02/11 06:10:50;;;;;;;46.22;7.97;;;;;;;9.98;76.84;99707.50;5091763;28;20028;-47
2022/02/11 06:13:16;;;;;;;41.10;8.00;;;;;;;9.97;76.68;99711.09;5091595;28;20120;-47
2022/02/11 06:15:43;;;;;;;44.67;11.25;;;;;;;9.91;77.13;99721.47;5090386;28;20031;-47
2022/02/11 06:18:09;;;;;;;26.20;8.90;;;;;;;9.96;77.69;99724.38;5091708;28;20153;-48
2022/02/11 06:20:35;;;;;;;33.30;8.55;;;;;;;10.04;78.14;99739.28;5090348;28;20608;-48
2022/02/11 06:23:02;;;;;;;20.38;6.40;;;;;;;10.10;77.40;99747.28;5090259;28;20028;-47
2022/02/11 06:25:29;;;;;;;25.30;6.32;;;;;;;9.98;76.94;99740.78;5091593;28;20035;-47
2022/02/11 06:27:55;;;;;;;19.48;6.47;;;;;;;9.97;77.75;99742.56;5090339;28;20085;-48
2022/02/11 06:30:21;;;;;;;20.70;7.28;;;;;;;10.00;77.48;99749.31;5091581;28;20052;-49
2022/02/11 06:32:47;;;;;;;17.17;6.88;;;;;;;9.99;78.00;99747.66;5091525;28;20043;-48
2022/02/11 06:35:14;;;;;;;18.15;7.88;;;;;;;9.95;78.04;99754.22;5089882;28;20075;-48
2022/02/11 06:37:48;;;;;;;17.35;7.03;;;;;;;9.94;77.46;99752.59;5091565;28;20051;-46
2022/02/11 06:40:15;;;;;;;17.63;6.50;;;;;;;9.88;77.95;99761.13;5091582;28;20150;-47
2022/02/11 06:42:42;;;;;;;17.15;6.63;;;;;;;9.86;77.71;99773.59;5091497;28;20024;-48
2022/02/11 06:45:09;;;;;;;12.13;6.97;;;;;;;9.82;76.77;99770.50;5091459;28;20118;-47
2022/02/11 06:47:34;;;;;;;15.60;6.88;;;;;;;9.71;77.50;99789.22;5090116;28;20482;-47
2022/02/11 06:50:00;;;;;;;19.75;6.65;;;;;;;9.76;78.02;99794.78;5091360;28;20024;-48
2022/02/11 06:52:26;;;;;;;11.90;5.10;;;;;;;9.71;76.83;99800.50;5091597;28;20123;-48
2022/02/11 06:54:52;;;;;;;19.45;6.50;;;;;;;9.66;77.07;99800.19;5090050;28;20029;-48
2022/02/11 06:57:18;;;;;;;19.15;5.65;;;;;;;9.63;77.28;99804.94;5089982;28;20062;-48
2022/02/11 06:59:44;;;;;;;18.00;7.45;;;;;;;9.60;77.34;99809.53;5091335;28;20034;-47
2022/02/11 07:02:18;;;;;;;20.50;8.20;;;;;;;9.56;76.92;99815.28;5089905;28;20024;-46
2022/02/11 07:04:45;;;;;;;34.88;19.77;;;;;;;9.53;77.22;99824.28;5089966;28;20020;-48
2022/02/11 07:07:11;;;;;;;18.70;11.93;;;;;;;9.51;77.78;99830.69;5091524;28;20028;-47
2022/02/11 07:09:37;;;;;;;20.40;6.50;;;;;;;9.51;78.39;99841.97;5092302;28;20521;-48
2022/02/11 07:12:03;;;;;;;15.10;6.53;;;;;;;9.51;78.08;99839.34;5093416;28;20067;-47
2022/02/11 07:14:29;;;;;;;12.40;5.43;;;;;;;9.53;77.30;99847.06;5093640;28;20024;-48
2022/02/11 07:16:55;;;;;;;12.98;8.13;;;;;;;9.44;77.86;99856.72;5094775;28;20103;-48
2022/02/11 07:19:21;;;;;;;12.07;6.35;;;;;;;9.49;78.70;99859.66;5093371;28;20061;-47
2022/02/11 07:21:47;;;;;;;15.88;6.43;;;;;;;9.58;78.45;99865.72;5094705;28;20020;-49
2022/02/11 07:24:14;;;;;;;10.82;5.47;;;;;;;9.71;77.89;99863.41;5093261;28;20020;-47
2022/02/11 07:26:40;;;;;;;11.40;6.22;;;;;;;9.68;77.43;99866.38;5094510;28;20024;-47
2022/02/11 07:29:06;;;;;;;9.10;6.57;;;;;;;9.58;76.63;99874.41;5093145;28;20024;-47
2022/02/11 07:31:32;;;;;;;22.23;10.20;;;;;;;9.48;76.57;99889.47;5094448;28;20031;-48
2022/02/11 07:33:58;;;;;;;7.53;5.05;;;;;;;9.38;75.83;99887.00;5094319;28;20028;-47
2022/02/11 07:36:24;;;;;;;9.65;4.10;;;;;;;9.29;75.62;99895.84;5093210;28;20020;-47
2022/02/11 07:38:53;;;;;;;6.43;3.58;;;;;;;9.32;74.98;99905.19;5093024;28;20077;-47
2022/02/11 07:41:19;;;;;;;6.38;3.60;;;;;;;9.30;74.08;99907.16;5094267;28;20019;-47
2022/02/11 07:43:48;;;;;;;6.88;4.03;;;;;;;9.32;73.95;99919.09;5094283;28;20028;-47
2022/02/11 07:46:13;;;;;;;9.70;3.22;;;;;;;9.33;73.45;99927.78;5094240;28;20031;-47
2022/02/11 07:48:40;;;;;;;17.92;3.78;;;;;;;9.35;73.24;99928.44;5092897;28;20020;-48
2022/02/11 07:51:06;;;;;;;5.82;2.60;;;;;;;9.36;73.00;99930.09;5092805;28;20016;-47
2022/02/11 07:53:34;;;;;;;11.40;4.80;;;;;;;9.42;71.61;99936.44;5075986;28;20401;-47
2022/02/11 07:56:01;;;;;;;13.25;2.95;;;;;;;9.44;71.35;99943.19;5093942;28;20095;-46
2022/02/11 07:58:27;;;;;;;9.10;4.13;;;;;;;9.53;70.60;99944.81;5094009;28;20104;-46
2022/02/11 08:00:54;;;;;;;12.38;3.67;;;;;;;9.48;70.38;99951.56;5092599;28;20048;-45
2022/02/11 08:03:20;;;;;;;3.70;1.73;;;;;;;9.48;68.46;99944.50;5093890;28;20062;-45
2022/02/11 08:05:46;;;;;;;6.05;2.70;;;;;;;9.35;69.05;99952.81;5093742;28;20020;-47
2022/02/11 08:08:12;;;;;;;10.35;2.15;;;;;;;9.27;69.17;99954.63;5093742;28;20059;-46
2022/02/11 08:10:37;;;;;;;4.63;1.75;;;;;;;9.35;68.93;99954.63;5092357;28;20052;-45
2022/02/11 08:13:03;;;;;;;6.97;1.80;;;;;;;9.39;68.02;99946.28;5093636;28;20424;-46
2022/02/11 08:15:29;;;;;;;4.10;1.35;;;;;;;9.46;67.20;99949.09;5093594;28;20537;-45
2022/02/11 08:17:54;;;;;;;7.70;1.52;;;;;;;9.52;66.09;99955.50;5092282;28;20457;-45
2022/02/11 08:20:20;;;;;;;14.57;1.60;;;;;;;9.54;66.41;99964.00;5091597;28;20020;-47
2022/02/11 08:22:47;;;;;;;15.07;2.38;;;;;;;9.59;66.73;99966.94;5093474;28;20494;-45
2022/02/11 08:25:12;;;;;;;17.27;1.63;;;;;;;9.58;65.75;99976.63;5093302;28;20028;-46
2022/02/11 08:27:40;;;;;;;8.43;1.67;;;;;;;9.65;66.40;99976.78;5093658;28;20032;-47
2022/02/11 08:30:07;;;;;;;6.70;1.90;;;;;;;9.82;66.13;99979.41;5091957;28;20069;-46
2022/02/11 08:32:32;;;;;;;9.15;2.03;;;;;;;9.87;65.66;99987.63;5093214;28;20027;-46
2022/02/11 08:34:58;;;;;;;5.53;1.58;;;;;;;9.91;64.88;99987.13;5092965;28;20409;-45
2022/02/11 08:37:25;;;;;;;9.38;1.55;;;;;;;10.04;64.96;99976.16;5093122;28;20027;-45
2022/02/11 08:39:53;;;;;;;7.88;1.35;;;;;;;9.98;64.07;99982.88;5091832;28;20048;-46
2022/02/11 08:42:21;;;;;;;7.10;1.38;;;;;;;10.11;64.83;99985.00;5091711;28;20097;-46
2022/02/11 08:44:47;;;;;;;4.18;1.40;;;;;;;10.26;64.40;99979.06;5093032;28;20494;-47
2022/02/11 08:47:14;;;;;;;5.93;1.40;;;;;;;10.33;64.06;99982.72;5092973;28;20413;-45
2022/02/11 08:49:39;;;;;;;1.65;1.20;;;;;;;10.28;61.76;99984.97;5092950;28;20103;-47
2022/02/11 08:52:06;;;;;;;4.20;1.30;;;;;;;10.19;62.43;99979.72;5092725;28;20103;-46
2022/02/11 08:54:32;;;;;;;9.48;2.00;;;;;;;10.27;62.03;99981.53;5092887;28;20073;-46
2022/02/11 08:56:58;;;;;;;7.93;1.60;;;;;;;10.41;62.30;99985.31;5091451;28;20024;-47
2022/02/11 08:59:24;;;;;;;9.23;1.75;;;;;;;10.46;62.10;99990.88;5092731;28;20016;-46
2022/02/11 09:01:50;;;;;;;3.30;1.60;;;;;;;10.49;61.16;99990.53;5092743;28;20016;-47
2022/02/11 09:04:16;;;;;;;2.70;1.30;;;;;;;10.52;61.36;99989.38;5092672;28;20055;-48
2022/02/11 09:06:48;;;;;;;4.38;1.52;;;;;;;10.63;61.02;99993.47;5092606;28;20056;-47
2022/02/11 09:09:18;;;;;;;4.85;1.38;;;;;;;10.76;60.87;99996.38;5092637;28;20039;-47
2022/02/11 09:11:44;;;;;;;15.65;1.85;;;;;;;10.73;61.57;99991.47;5092566;28;20032;-47
2022/02/11 09:14:10;;;;;;;9.98;1.75;;;;;;;10.79;61.95;100003.94;5092419;28;20043;-46
2022/02/11 09:16:37;;;;;;;9.48;1.92;;;;;;;10.89;61.10;100001.91;5091148;28;20024;-48
2022/02/11 09:19:03;;;;;;;5.45;1.52;;;;;;;10.91;60.18;100002.56;5091076;28;20043;-48
2022/02/11 09:21:30;;;;;;;9.52;1.85;;;;;;;11.03;60.73;99995.13;5092374;28;20025;-46
2022/02/11 09:23:56;;;;;;;5.63;1.80;;;;;;;11.05;60.38;99990.53;5092360;28;20024;-49
2022/02/11 09:26:22;;;;;;;3.08;1.40;;;;;;;11.21;59.82;99992.28;5092332;28;20383;-48
2022/02/11 09:28:48;;;;;;;3.92;1.50;;;;;;;11.37;57.54;99994.81;5091009;28;20081;-47
2022/02/11 09:31:14;;;;;;;4.38;1.40;;;;;;;11.35;57.73;99994.16;5091968;28;20020;-48
2022/02/11 09:33:40;;;;;;;2.78;1.45;;;;;;;11.46;56.64;100000.00;5089886;28;20028;-48
2022/02/11 09:36:07;;;;;;;5.60;1.55;;;;;;;11.28;56.38;99993.19;5074021;28;20039;-46
2022/02/11 09:38:33;;;;;;;7.95;1.80;;;;;;;11.19;56.49;100002.13;5092124;28;20028;-49
2022/02/11 09:41:00;;;;;;;6.88;2.05;;;;;;;11.39;56.08;100002.53;5090767;28;20452;-48
2022/02/11 09:43:27;;;;;;;2.72;1.65;;;;;;;11.43;55.89;100011.69;5090787;28;20020;-48
2022/02/11 09:45:54;;;;;;;4.68;1.52;;;;;;;11.89;55.51;100000.41;5092045;28;20035;-47
2022/02/11 09:48:23;;;;;;;5.25;1.58;;;;;;;12.33;53.55;100002.31;5090682;28;20020;-48
2022/02/11 09:50:55;;;;;;;2.58;1.48;;;;;;;13.04;52.34;100001.88;5091950;28;20032;-50
2022/02/11 09:53:26;;;;;;;4.10;1.52;;;;;;;13.27;51.85;100002.59;5091941;28;20443;-47
2022/02/11 09:55:52;;;;;;;12.50;8.38;;;;;;;13.29;50.76;100005.88;5091963;28;20028;-48
2022/02/11 09:58:18;;;;;;;13.30;6.63;;;;;;;13.22;49.76;100018.16;5090528;28;20077;-49
2022/02/11 10:00:50;;;;;;;13.00;5.57;;;;;;;13.08;49.79;100017.19;5091910;28;20436;-48
2022/02/11 10:03:22;;;;;;;12.10;3.20;;;;;;;13.07;50.67;100012.88;5091839;28;20028;-48
2022/02/11 10:05:59;;;;;;;8.88;1.70;;;;;;;13.00;50.95;100017.28;5090432;28;20394;-49
2022/02/11 10:08:26;;;;;;;6.38;2.03;;;;;;;13.04;51.45;100012.44;5091827;28;20489;-50
2022/02/11 10:10:55;;;;;;;3.55;1.75;;;;;;;13.18;50.40;100017.69;5091768;28;20024;-49
2022/02/11 10:13:40;;;;;;;5.20;1.70;;;;;;;13.12;50.39;100014.97;5091736;28;20055;-49
2022/02/11 10:16:10;;;;;;;7.68;1.65;;;;;;;12.89;50.74;100008.00;5091755;28;20032;-49
2022/02/11 10:18:46;;;;;;;11.07;2.17;;;;;;;12.74;51.26;100005.38;5091733;28;20032;-49
2022/02/11 10:21:20;;;;;;;2.40;1.10;;;;;;;12.76;51.62;100013.91;5091692;28;20032;-49
2022/02/11 10:23:50;;;;;;;5.87;1.90;;;;;;;13.04;51.23;100008.00;5091826;28;20042;-48
2022/02/11 10:26:24;;;;;;;2.25;1.15;;;;;;;13.33;49.99;100004.50;5091665;28;20257;-50
2022/02/11 10:28:55;;;;;;;9.35;1.92;;;;;;;13.36;48.71;100005.94;5091611;28;20028;-48
2022/02/11 10:31:22;;;;;;;7.13;1.55;;;;;;;13.39;48.44;100008.22;5091674;28;20020;-50
2022/02/11 10:33:55;;;;;;;8.20;1.55;;;;;;;13.66;47.93;100016.41;5091131;28;20024;-50
2022/02/11 10:36:24;;;;;;;2.38;1.20;;;;;;;14.12;46.82;100011.56;5091587;28;20034;-49
2022/02/11 10:39:05;;;;;;;7.47;1.67;;;;;;;14.43;47.10;100020.13;5091533;28;20023;-51
2022/02/11 10:41:33;;;;;;;5.32;2.35;;;;;;;14.42;46.17;100021.16;5091598;28;20409;-51
2022/02/11 10:44:05;;;;;;;3.17;1.63;;;;;;;13.96;47.01;100019.75;5093063;28;20048;-51
2022/02/11 10:46:41;;;;;;;10.15;2.50;;;;;;;13.74;47.58;100025.06;5095429;28;20028;-49
2022/02/11 10:49:08;;;;;;;3.88;2.05;;;;;;;13.57;47.93;100037.63;5095325;28;20032;-49
2022/02/11 10:51:45;;;;;;;6.60;1.50;;;;;;;13.41;47.45;100029.97;5095150;28;20024;-47
2022/02/11 10:54:29;;;;;;;7.63;1.40;;;;;;;13.09;47.48;100033.78;5095162;28;20023;-47
2022/02/11 10:56:58;;;;;;;3.90;1.33;;;;;;;13.12;47.68;100036.06;5095191;28;20032;-47
2022/02/11 10:59:32;;;;;;;1.13;1.02;;;;;;;13.26;47.51;100032.59;5093853;28;20020;-48
2022/02/11 11:02:10;;;;;;;7.75;1.60;;;;;;;13.21;48.29;100034.97;5095138;28;20126;-48
2022/02/11 11:04:37;;;;;;;3.10;1.40;;;;;;;13.33;48.03;100033.50;5093722;28;20030;-47
2022/02/11 11:07:04;;;;;;;1.95;1.58;;;;;;;13.37;46.74;100024.22;5094975;28;20101;-48
2022/02/11 11:09:30;;;;;;;4.47;1.85;;;;;;;13.42;46.21;100018.41;5094919;28;20612;-48
2022/02/11 11:12:00;;;;;;;5.63;1.60;;;;;;;13.67;46.73;100024.16;5093453;28;20031;-49
2022/02/11 11:14:30;;;;;;;4.82;1.33;;;;;;;14.63;42.88;100020.28;5094869;28;20020;-49
2022/02/11 11:17:02;;;;;;;6.10;1.63;;;;;;;15.09;42.65;100009.97;5094753;28;20020;-49
2022/02/11 11:19:34;;;;;;;3.47;1.50;;;;;;;14.86;42.82;100012.09;5094764;28;20024;-51
2022/02/11 11:22:14;;;;;;;7.97;1.98;;;;;;;14.52;42.81;100009.22;5093487;28;20581;-49
2022/02/11 11:24:43;;;;;;;2.65;1.35;;;;;;;14.12;43.66;100016.84;5093390;28;20448;-49
2022/02/11 11:27:09;;;;;;;1.83;1.13;;;;;;;13.83;43.51;100003.81;5094580;28;20039;-47
2022/02/11 11:29:35;;;;;;;3.92;1.73;;;;;;;14.77;42.35;100004.34;5093257;28;20027;-49
2022/02/11 11:32:03;;;;;;;4.97;1.67;;;;;;;14.82;42.36;100001.09;5093097;28;20035;-50
2022/02/11 11:34:31;;;;;;;14.15;2.13;;;;;;;15.04;42.03;100003.66;5094201;28;20047;-49
2022/02/11 11:37:04;;;;;;;9.05;1.60;;;;;;;15.29;41.41;99998.66;5093021;28;20028;-48
2022/02/11 11:39:31;;;;;;;4.57;1.75;;;;;;;15.96;40.50;99997.00;5093123;28;20118;-50
2022/02/11 11:42:12;;;;;;;5.20;1.73;;;;;;;16.38;39.02;99995.75;5092913;28;20026;-50
2022/02/11 11:44:45;;;;;;;3.08;1.40;;;;;;;15.84;38.71;99982.72;5094345;28;20042;-47
2022/02/11 11:47:28;;;;;;;5.45;1.48;;;;;;;15.37;39.42;99980.78;5092902;28;20091;-49
2022/02/11 11:49:55;;;;;;;6.13;1.40;;;;;;;14.91;40.89;99975.31;5094159;28;20485;-49
2022/02/11 11:52:21;;;;;;;8.38;1.92;;;;;;;14.44;41.02;99980.31;5092711;28;20020;-48
2022/02/11 11:54:47;;;;;;;6.45;2.00;;;;;;;14.29;41.59;99967.22;5092028;28;20572;-49
2022/02/11 11:57:18;;;;;;;2.40;1.73;;;;;;;14.16;41.18;99954.72;5093700;28;20066;-48
2022/02/11 11:59:55;;;;;;;4.25;1.30;;;;;;;13.78;41.41;99962.13;5093929;28;20047;-47
2022/02/11 12:02:26;;;;;;;3.38;1.50;;;;;;;13.72;42.45;99957.63;5093892;28;20512;-48
2022/02/11 12:04:58;;;;;;;8.93;2.05;;;;;;;13.76;42.10;99961.50;5092561;28;20463;-49
2022/02/11 12:07:26;;;;;;;8.02;2.40;;;;;;;13.68;42.60;99959.00;5092483;28;20497;-47
2022/02/11 12:09:55;;;;;;;4.53;1.70;;;;;;;13.49;42.67;99966.53;5093777;28;20032;-48
2022/02/11 12:12:29;;;;;;;5.63;1.77;;;;;;;13.43;43.37;99956.75;5092412;28;20031;-49
2022/02/11 12:14:57;;;;;;;6.70;1.60;;;;;;;13.84;43.24;99953.47;5093698;28;20034;-48
2022/02/11 12:17:24;;;;;;;4.20;2.20;;;;;;;13.90;42.67;99939.50;5093683;28;20419;-49
2022/02/11 12:19:52;;;;;;;8.05;2.00;;;;;;;13.78;43.05;99952.44;5093582;28;20390;-48
2022/02/11 12:22:20;;;;;;;6.55;2.05;;;;;;;13.94;43.25;99940.78;5093449;28;20475;-47
2022/02/11 12:27:40;;;;;;;4.75;1.58;;;;;;;14.45;41.40;99930.97;5093759;28;20043;-47
2022/02/11 12:30:16;;;;;;;14.95;9.05;;;;;;;14.32;41.15;99931.69;5093337;28;20055;-48
2022/02/11 12:32:47;;;;;;;5.32;2.22;;;;;;;14.07;42.21;99940.06;5092043;28;20032;-47
2022/02/11 12:35:21;;;;;;;6.47;1.77;;;;;;;13.96;41.80;99932.66;5091661;28;20127;-49
2022/02/11 12:37:47;;;;;;;4.70;1.40;;;;;;;13.78;41.87;99935.75;5093288;28;20028;-48
2022/02/11 12:40:28;;;;;;;8.13;1.67;;;;;;;13.69;41.38;99926.34;5093270;28;20101;-49
2022/02/11 12:42:56;;;;;;;8.88;1.60;;;;;;;13.70;41.77;99934.09;5093267;28;20494;-49
2022/02/11 12:45:31;;;;;;;3.45;1.67;;;;;;;13.82;41.93;99934.38;5091818;28;20020;-47
2022/02/11 12:47:57;;;;;;;6.78;1.38;;;;;;;13.86;41.34;99934.81;5093016;28;20027;-49
2022/02/11 12:50:32;;;;;;;3.80;1.77;;;;;;;13.61;41.43;99927.31;5091683;28;20527;-48
2022/02/11 12:52:59;;;;;;;6.72;1.65;;;;;;;13.44;41.95;99918.00;5091535;28;20095;-48
2022/02/11 12:55:25;;;;;;;10.70;2.45;;;;;;;13.35;42.32;99935.78;5091555;28;20031;-47
2022/02/11 12:57:56;;;;;;;15.35;2.78;;;;;;;13.46;42.43;99937.09;5092858;28;20020;-49
2022/02/11 13:00:25;;;;;;;8.38;2.33;;;;;;;13.63;42.43;99935.03;5091541;28;20032;-49
2022/02/11 13:02:57;;;;;;;6.43;2.35;;;;;;;13.72;41.42;99931.25;5091544;28;20393;-47
2022/02/11 13:05:28;;;;;;;12.35;2.85;;;;;;;13.52;42.12;99933.69;5092760;28;20097;-47
2022/02/11 13:08:00;;;;;;;7.18;1.77;;;;;;;13.38;42.35;99932.75;5092752;28;20078;-48
2022/02/11 13:10:27;;;;;;;6.07;2.42;;;;;;;13.35;42.37;99928.66;5092623;28;20493;-48
2022/02/11 13:13:02;;;;;;;4.60;1.45;;;;;;;13.30;41.99;99917.06;5091155;28;20020;-48
2022/02/11 13:15:36;;;;;;;4.37;1.83;;;;;;;13.28;42.13;99909.31;5091231;28;20065;-47
2022/02/11 13:18:13;;;;;;;5.07;1.85;;;;;;;13.24;41.69;99908.06;5091208;28;20304;-49
2022/02/11 13:20:42;;;;;;;5.20;1.67;;;;;;;13.21;41.62;99913.69;5092480;28;20016;-47
2022/02/11 13:23:12;;;;;;;7.00;1.83;;;;;;;13.23;42.23;99911.69;5091067;28;20028;-47
2022/02/11 13:25:39;;;;;;;11.82;1.80;;;;;;;13.42;41.66;99917.38;5092379;28;20485;-47
2022/02/11 13:28:13;;;;;;;11.95;2.75;;;;;;;13.57;41.27;99916.31;5092293;28;20085;-48
2022/02/11 13:30:44;;;;;;;6.43;1.60;;;;;;;13.50;41.34;99906.69;5092332;28;20032;-47
2022/02/11 13:33:24;;;;;;;6.93;1.92;;;;;;;13.39;41.48;99906.19;5092162;28;20042;-48
2022/02/11 13:35:51;;;;;;;8.25;1.67;;;;;;;13.33;41.64;99898.22;5090768;28;20048;-48
2022/02/11 13:38:32;;;;;;;6.05;1.50;;;;;;;13.18;41.80;99895.63;5092225;28;20028;-48
2022/02/11 13:41:01;;;;;;;4.10;1.52;;;;;;;13.14;41.70;99897.81;5090847;28;20027;-48
2022/02/11 13:43:44;;;;;;;2.38;1.40;;;;;;;13.15;41.44;99898.63;5092128;28;20056;-47
2022/02/11 13:46:10;;;;;;;7.40;1.65;;;;;;;13.20;42.05;99906.81;5090774;28;20040;-48
2022/02/11 13:48:52;;;;;;;2.50;1.48;;;;;;;13.37;41.47;99892.38;5090766;28;20031;-49
2022/02/11 13:51:18;;;;;;;8.70;1.90;;;;;;;13.42;41.02;99899.75;5092075;28;20540;-48
2022/02/11 13:53:52;;;;;;;11.63;1.95;;;;;;;13.39;40.86;99894.84;5090593;28;20098;-47
2022/02/11 13:56:22;;;;;;;8.48;3.50;;;;;;;13.47;40.92;99891.28;5091976;28;20029;-47
2022/02/11 13:59:11;;;;;;;8.82;1.90;;;;;;;13.55;40.54;99891.13;5091952;28;20099;-48
2022/02/11 14:01:47;;;;;;;16.52;2.20;;;;;;;13.65;40.68;99891.63;5091860;28;20039;-48
2022/02/11 14:04:22;;;;;;;15.57;2.78;;;;;;;13.67;40.15;99881.69;5090516;28;20074;-48
2022/02/11 14:06:55;;;;;;;6.32;1.88;;;;;;;13.34;40.06;99891.94;5091806;28;20497;-48
2022/02/11 14:09:39;;;;;;;13.30;2.22;;;;;;;13.21;39.95;99889.16;5090517;28;20055;-49
2022/02/11 14:12:12;;;;;;;14.45;3.53;;;;;;;13.21;40.73;99897.88;5091721;28;20020;-49
2022/02/11 14:14:49;;;;;;;19.23;2.10;;;;;;;13.07;40.74;99890.84;5091857;28;20048;-49
2022/02/11 14:17:15;;;;;;;11.68;1.90;;;;;;;13.07;40.96;99882.94;5090442;28;20065;-48
2022/02/11 14:19:42;;;;;;;19.13;1.98;;;;;;;13.07;41.21;99886.38;5093226;28;20028;-48
2022/02/11 14:22:08;;;;;;;14.27;1.95;;;;;;;13.12;41.31;99891.09;5095785;28;20405;-48
2022/02/11 14:24:34;;;;;;;8.43;1.30;;;;;;;13.11;39.86;99881.56;5094495;28;20028;-49
2022/02/11 14:27:00;;;;;;;6.28;1.63;;;;;;;12.84;40.29;99886.53;5095712;28;20073;-48
2022/02/11 14:29:26;;;;;;;6.88;1.70;;;;;;;12.62;40.92;99890.13;5094537;28;20039;-47
2022/02/11 14:31:52;;;;;;;7.70;1.88;;;;;;;12.37;41.04;99887.78;5095639;28;20497;-48
2022/02/11 14:34:18;;;;;;;7.10;1.60;;;;;;;12.06;41.67;99895.84;5095265;28;20040;-49
2022/02/11 14:36:44;;;;;;;22.52;3.35;;;;;;;11.83;42.67;99895.88;5095485;28;20028;-48
2022/02/11 14:39:17;;;;;;;5.55;1.42;;;;;;;11.82;42.51;99894.25;5095558;28;20042;-48
2022/02/11 14:41:49;;;;;;;7.18;1.75;;;;;;;11.88;42.63;99898.78;5095488;28;20028;-47
2022/02/11 14:44:20;;;;;;;7.80;1.55;;;;;;;11.91;42.72;99903.72;5095541;28;20032;-48
2022/02/11 14:46:48;;;;;;;8.82;1.70;;;;;;;11.91;42.59;99893.19;5095393;28;20016;-48
2022/02/11 14:49:17;;;;;;;4.20;1.25;;;;;;;11.94;42.33;99908.63;5095374;28;20024;-49
2022/02/11 14:51:44;;;;;;;7.10;2.17;;;;;;;11.88;42.34;99894.34;5095261;28;20133;-48
2022/02/11 14:54:11;;;;;;;12.60;2.03;;;;;;;11.86;42.33;99906.03;5095130;28;20071;-47
2022/02/11 14:56:41;;;;;;;7.38;1.80;;;;;;;11.80;42.29;99894.41;5095168;28;20020;-48
2022/02/11 14:59:08;;;;;;;6.50;1.60;;;;;;;11.66;41.80;99903.09;5095196;28;20497;-47
2022/02/11 15:01:35;;;;;;;9.65;2.20;;;;;;;11.45;42.82;99903.72;5095133;28;20023;-47
2022/02/11 15:04:01;;;;;;;10.30;2.00;;;;;;;11.40;43.20;99904.25;5095063;28;20513;-49
2022/02/11 15:06:27;;;;;;;12.07;1.60;;;;;;;11.49;43.22;99894.50;5093622;28;20039;-47
2022/02/11 15:08:53;;;;;;;6.32;2.47;;;;;;;11.62;42.03;99901.81;5095008;28;20024;-48
2022/02/11 15:11:19;;;;;;;8.70;1.63;;;;;;;11.66;42.45;99898.63;5093616;28;20024;-50
2022/02/11 15:13:45;;;;;;;12.90;1.75;;;;;;;11.84;42.74;99894.88;5094774;28;20490;-49
2022/02/11 15:16:11;;;;;;;5.05;1.30;;;;;;;12.08;41.50;99885.97;5094855;28;20020;-49
2022/02/11 15:18:38;;;;;;;10.45;2.60;;;;;;;12.02;41.42;99895.38;5094781;28;20039;-47
2022/02/11 15:21:07;;;;;;;4.05;1.25;;;;;;;11.95;40.91;99895.31;5093382;28;20074;-49
2022/02/11 15:23:35;;;;;;;6.55;1.80;;;;;;;11.75;41.08;99887.06;5093375;28;20031;-48
2022/02/11 15:26:02;;;;;;;6.65;1.60;;;;;;;11.57;41.71;99899.72;5093303;28;20016;-47
2022/02/11 15:28:38;;;;;;;10.40;2.33;;;;;;;11.58;42.02;99896.06;5093262;28;20531;-48
2022/02/11 15:31:04;;;;;;;;;;;;;;;11.61;41.80;99906.25;5095019;28;20031;-48